Time;durP1;ratioP1;P1;durP2;ratioP2;P2;SDS_P1;SDS_P2;PMS_P1;PMS_P2;Temp;Humidity;BMP_temperature;BMP_pressure;BME280_temperature;BME280_humidity;BME280_pressure;Samples;Min_cycle;Max_cycle;Signal;HPM_P1;HPM_P2
2022/10/29 00:01:29;;;;;;;21.23;4.82;;;13.30;99.90;;;;;;5050742;28;20044;-78
2022/10/29 00:03:54;;;;;;;16.52;4.90;;;13.20;99.90;;;;;;5050845;28;20075;-78
2022/10/29 00:06:19;;;;;;;25.08;6.60;;;13.30;99.90;;;;;;5051226;28;20132;-77
2022/10/29 00:08:45;;;;;;;14.15;5.38;;;13.30;99.90;;;;;;5051100;28;20040;-78
2022/10/29 00:11:14;;;;;;;29.45;6.22;;;13.20;99.90;;;;;;5050825;28;20088;-78
2022/10/29 00:13:40;;;;;;;12.90;4.93;;;13.20;99.90;;;;;;5034831;28;20033;-78
2022/10/29 00:16:08;;;;;;;18.00;6.03;;;13.20;99.90;;;;;;5051103;28;20102;-78
2022/10/29 00:18:34;;;;;;;22.65;5.55;;;13.10;99.90;;;;;;5034711;28;20036;-78
2022/10/29 00:21:01;;;;;;;16.77;5.75;;;13.20;99.90;;;;;;5051335;28;20037;-78
2022/10/29 00:23:26;;;;;;;20.15;6.15;;;13.10;99.90;;;;;;5051298;28;20055;-78
2022/10/29 00:25:59;;;;;;;17.48;6.00;;;13.10;99.90;;;;;;5051435;28;20053;-78
2022/10/29 00:28:26;;;;;;;17.75;6.18;;;13.10;99.90;;;;;;5051283;28;20033;-78
2022/10/29 00:30:51;;;;;;;19.48;6.00;;;13.10;99.90;;;;;;5050907;28;20063;-78
2022/10/29 00:33:19;;;;;;;16.27;5.82;;;13.10;99.90;;;;;;5051311;28;20430;-78
2022/10/29 00:36:03;;;;;;;24.25;5.78;;;13.00;99.90;;;;;;5051622;28;20502;-78
2022/10/29 00:38:30;;;;;;;26.40;6.60;;;13.00;99.90;;;;;;5051981;28;20076;-77
2022/10/29 00:40:56;;;;;;;15.60;5.55;;;13.00;99.90;;;;;;5051483;28;20033;-78
2022/10/29 00:43:23;;;;;;;14.90;5.65;;;13.00;99.90;;;;;;5051666;28;20119;-78
2022/10/29 00:45:58;;;;;;;16.63;5.60;;;13.00;99.90;;;;;;5051100;28;20171;-77
2022/10/29 00:48:28;;;;;;;22.50;6.57;;;13.00;99.90;;;;;;5051809;28;20041;-78
2022/10/29 00:50:55;;;;;;;23.52;6.05;;;13.00;99.90;;;;;;5051629;28;20048;-78
2022/10/29 00:53:24;;;;;;;16.15;6.95;;;13.00;99.90;;;;;;5036847;28;20033;-78
2022/10/29 00:55:50;;;;;;;14.63;5.90;;;13.00;99.90;;;;;;5054106;28;20045;-78
2022/10/29 00:58:16;;;;;;;17.80;6.93;;;12.90;99.90;;;;;;5039693;28;20095;-79
2022/10/29 01:00:43;;;;;;;17.27;6.25;;;12.90;99.90;;;;;;5055611;28;20048;-78
2022/10/29 01:03:08;;;;;;;16.45;5.78;;;12.90;99.90;;;;;;5055867;28;20083;-78
2022/10/29 01:05:34;;;;;;;22.73;6.40;;;12.90;99.90;;;;;;5056104;28;20515;-78
2022/10/29 01:08:01;;;;;;;18.20;6.60;;;12.80;99.90;;;;;;5056399;28;20445;-79
2022/10/29 01:11:00;;;;;;;16.23;6.07;;;12.80;99.90;;;;;;5055430;28;20037;-78
2022/10/29 01:13:58;;;;;;;22.15;6.30;;;12.80;99.90;;;;;;5038564;28;20048;-78
2022/10/29 01:16:29;;;;;;;19.88;6.40;;;12.80;99.90;;;;;;5056106;28;20045;-79
2022/10/29 01:19:29;;;;;;;24.50;6.82;;;12.80;99.90;;;;;;5055815;28;20040;-79
2022/10/29 01:22:04;;;;;;;37.90;7.38;;;12.70;99.90;;;;;;5044296;28;20045;-79
2022/10/29 01:25:07;;;;;;;23.92;7.25;;;12.80;99.90;;;;;;5038628;28;20071;-79
2022/10/29 01:28:04;;;;;;;20.17;6.85;;;12.80;99.90;;;;;;5055515;28;20047;-78
2022/10/29 01:30:56;;;;;;;52.00;7.75;;;12.80;99.90;;;;;;5054687;28;20110;-79
2022/10/29 01:33:38;;;;;;;41.17;8.30;;;12.80;99.90;;;;;;5054205;28;20048;-79
2022/10/29 01:36:14;;;;;;;63.65;8.10;;;12.80;99.90;;;;;;5054959;28;20045;-78
2022/10/29 01:38:57;;;;;;;44.00;8.40;;;12.80;99.90;;;;;;5038844;28;20059;-78
2022/10/29 01:41:31;;;;;;;25.35;7.57;;;12.80;99.90;;;;;;5053718;28;20045;-77
2022/10/29 01:44:08;;;;;;;21.08;6.82;;;12.80;99.90;;;;;;5054275;28;20040;-78
2022/10/29 01:46:39;;;;;;;13.77;6.15;;;12.80;99.90;;;;;;5038508;28;20037;-79
2022/10/29 01:49:11;;;;;;;18.58;6.50;;;12.90;99.90;;;;;;5055396;28;20078;-77
2022/10/29 01:51:38;;;;;;;32.72;6.30;;;12.80;99.90;;;;;;5054088;28;20128;-77
2022/10/29 01:54:09;;;;;;;51.42;6.88;;;12.80;99.90;;;;;;5053795;28;20049;-78
2022/10/29 01:56:35;;;;;;;37.78;5.55;;;12.80;99.90;;;;;;5053610;28;20083;-79
2022/10/29 01:59:03;;;;;;;13.65;4.85;;;12.80;99.90;;;;;;5054612;28;20486;-78
2022/10/29 02:01:40;;;;;;;27.70;6.22;;;12.80;99.90;;;;;;5054170;28;20041;-79
2022/10/29 02:04:40;;;;;;;43.30;6.53;;;12.80;99.90;;;;;;5037447;28;20099;-79
2022/10/29 02:07:42;;;;;;;24.05;6.57;;;12.70;99.90;;;;;;5054561;28;20033;-78
2022/10/29 02:10:30;;;;;;;15.10;5.65;;;12.70;99.90;;;;;;5052974;28;20051;-78
2022/10/29 02:12:56;;;;;;;59.15;7.10;;;12.70;99.90;;;;;;5053568;28;20103;-78
2022/10/29 02:15:36;;;;;;;41.88;5.97;;;12.70;99.90;;;;;;5037127;28;20041;-77
2022/10/29 02:18:05;;;;;;;33.40;5.55;;;12.70;99.90;;;;;;5053598;28;20036;-77
2022/10/29 02:20:31;;;;;;;32.38;6.07;;;12.60;99.90;;;;;;5053121;28;20510;-78
2022/10/29 02:22:57;;;;;;;48.28;5.97;;;12.60;99.90;;;;;;5053491;28;20083;-78
2022/10/29 02:25:22;;;;;;;26.10;4.97;;;12.60;99.90;;;;;;5036827;28;20137;-78
2022/10/29 02:27:48;;;;;;;57.28;6.07;;;12.60;99.90;;;;;;5053848;28;20068;-78
2022/10/29 02:30:14;;;;;;;26.35;4.78;;;12.60;99.90;;;;;;5037446;28;20047;-78
2022/10/29 02:32:40;;;;;;;25.05;4.78;;;12.60;99.90;;;;;;5053541;28;20037;-78
2022/10/29 02:35:06;;;;;;;41.70;4.85;;;12.60;99.90;;;;;;5053637;28;20040;-78
2022/10/29 02:37:31;;;;;;;13.20;4.38;;;12.60;99.90;;;;;;5053691;28;20044;-78
2022/10/29 02:39:57;;;;;;;36.20;6.53;;;12.60;99.90;;;;;;5054060;28;20384;-77
2022/10/29 02:42:22;;;;;;;74.03;6.55;;;12.50;99.90;;;;;;5036836;28;20037;-78
2022/10/29 02:44:48;;;;;;;14.93;4.22;;;12.50;99.90;;;;;;5054156;28;20047;-78
2022/10/29 02:47:14;;;;;;;24.75;4.78;;;12.50;99.90;;;;;;5053947;28;20060;-78
2022/10/29 02:49:39;;;;;;;24.73;5.10;;;12.60;99.90;;;;;;5053581;28;20068;-78
2022/10/29 02:52:05;;;;;;;30.08;5.47;;;12.60;99.90;;;;;;5053596;28;20403;-77
2022/10/29 02:54:31;;;;;;;70.72;7.15;;;12.60;99.90;;;;;;5052353;28;20072;-77
2022/10/29 02:56:56;;;;;;;10.05;4.35;;;12.60;99.90;;;;;;5053225;28;20051;-78
2022/10/29 02:59:22;;;;;;;65.47;6.13;;;12.60;99.90;;;;;;5053590;28;20104;-78
2022/10/29 03:01:47;;;;;;;86.60;7.07;;;12.60;99.90;;;;;;5053418;28;20056;-78
2022/10/29 03:04:13;;;;;;;14.20;4.97;;;12.60;99.90;;;;;;5052972;28;20045;-78
2022/10/29 03:06:38;;;;;;;36.38;5.20;;;12.60;99.90;;;;;;5053513;28;20406;-78
2022/10/29 03:09:04;;;;;;;8.93;3.90;;;12.60;99.90;;;;;;5053221;28;20182;-78
2022/10/29 03:11:29;;;;;;;42.65;4.85;;;12.60;99.90;;;;;;5053345;28;20119;-78
2022/10/29 03:13:55;;;;;;;51.65;6.03;;;12.50;99.90;;;;;;5053408;28;20079;-79
2022/10/29 03:16:20;;;;;;;31.60;4.10;;;12.50;99.90;;;;;;5052607;28;20051;-79
2022/10/29 03:18:46;;;;;;;41.53;4.70;;;12.50;99.90;;;;;;5053696;28;20125;-78
2022/10/29 03:21:11;;;;;;;40.13;5.10;;;12.50;99.90;;;;;;5053079;28;20028;-78
2022/10/29 03:23:37;;;;;;;27.65;5.40;;;12.50;99.90;;;;;;5053413;28;20044;-78
2022/10/29 03:26:03;;;;;;;26.85;4.45;;;12.40;99.90;;;;;;5053346;28;20456;-79
2022/10/29 03:28:29;;;;;;;10.93;3.97;;;12.40;99.90;;;;;;5053395;28;20088;-78
2022/10/29 03:30:55;;;;;;;71.82;5.75;;;12.40;99.90;;;;;;5036509;28;20044;-79
2022/10/29 03:33:22;;;;;;;65.72;5.70;;;12.40;99.90;;;;;;5036973;28;20139;-79
2022/10/29 03:35:47;;;;;;;72.40;7.10;;;12.40;99.90;;;;;;5053456;28;20080;-79
2022/10/29 03:38:13;;;;;;;59.05;5.43;;;12.40;99.90;;;;;;5053627;28;20047;-79
2022/10/29 03:40:39;;;;;;;55.10;5.65;;;12.40;99.90;;;;;;5053230;28;20076;-80
2022/10/29 03:43:05;;;;;;;19.90;4.50;;;12.40;99.90;;;;;;5053614;28;20040;-78
2022/10/29 03:45:30;;;;;;;26.30;5.00;;;12.40;99.90;;;;;;5053434;28;20052;-79
2022/10/29 03:47:56;;;;;;;27.00;4.78;;;12.40;99.90;;;;;;5053630;28;20146;-79
2022/10/29 03:50:21;;;;;;;21.23;4.28;;;12.40;99.90;;;;;;5053410;28;20129;-79
2022/10/29 03:52:47;;;;;;;31.90;4.80;;;12.40;99.90;;;;;;5053145;28;20485;-79
2022/10/29 03:55:12;;;;;;;48.97;5.32;;;12.40;99.90;;;;;;5052862;28;20514;-78
2022/10/29 03:57:38;;;;;;;42.75;5.22;;;12.40;99.90;;;;;;5052627;28;20083;-79
2022/10/29 04:00:04;;;;;;;36.55;5.22;;;12.40;99.90;;;;;;5053182;28;20515;-79
2022/10/29 04:02:30;;;;;;;13.05;4.80;;;12.50;99.90;;;;;;5052780;28;20474;-78
2022/10/29 04:04:55;;;;;;;89.53;7.60;;;12.40;99.90;;;;;;5054405;28;20064;-79
2022/10/29 04:07:21;;;;;;;31.02;5.47;;;12.50;99.90;;;;;;5053316;28;20049;-79
2022/10/29 04:09:46;;;;;;;48.53;5.50;;;12.50;99.90;;;;;;5053480;28;20044;-79
2022/10/29 04:12:12;;;;;;;27.48;6.45;;;12.50;99.90;;;;;;5053344;28;20041;-78
2022/10/29 04:14:37;;;;;;;18.88;5.05;;;12.50;99.90;;;;;;5053092;28;20045;-79
2022/10/29 04:17:03;;;;;;;13.13;4.85;;;12.50;99.90;;;;;;5053513;28;20182;-80
2022/10/29 04:19:28;;;;;;;53.92;6.03;;;12.50;99.90;;;;;;5053592;28;20052;-79
2022/10/29 04:21:54;;;;;;;74.57;7.93;;;12.50;99.90;;;;;;5052934;28;20040;-79
2022/10/29 04:24:19;;;;;;;40.25;6.03;;;12.50;99.90;;;;;;5052905;28;20485;-79
2022/10/29 04:26:45;;;;;;;55.97;6.93;;;12.50;99.90;;;;;;5053275;28;20106;-79
2022/10/29 04:29:10;;;;;;;54.00;6.43;;;12.50;99.90;;;;;;5052615;28;20040;-79
2022/10/29 04:31:36;;;;;;;40.50;6.18;;;12.50;99.90;;;;;;5052036;28;20037;-80
2022/10/29 04:34:03;;;;;;;76.78;8.52;;;12.50;99.90;;;;;;5035530;28;20079;-80
2022/10/29 04:36:29;;;;;;;81.65;9.05;;;12.40;99.90;;;;;;5052790;28;20039;-79
2022/10/29 04:38:54;;;;;;;40.63;6.72;;;12.50;99.90;;;;;;5052296;28;20037;-80
2022/10/29 04:41:20;;;;;;;44.88;6.53;;;12.50;99.90;;;;;;5052351;28;20098;-80
2022/10/29 04:43:45;;;;;;;47.80;7.55;;;12.50;99.90;;;;;;5052138;28;20041;-79
2022/10/29 04:46:11;;;;;;;36.83;7.03;;;12.50;99.90;;;;;;5053067;28;20041;-79
2022/10/29 04:48:37;;;;;;;36.03;6.32;;;12.50;99.90;;;;;;5051913;28;20045;-79
2022/10/29 04:51:03;;;;;;;50.88;7.90;;;12.50;99.90;;;;;;5051483;28;20040;-80
2022/10/29 04:53:28;;;;;;;51.33;7.35;;;12.50;99.90;;;;;;5035547;28;20033;-79
2022/10/29 04:56:00;;;;;;;37.03;8.27;;;12.50;99.90;;;;;;5044534;28;20037;-79
2022/10/29 04:58:25;;;;;;;64.35;9.43;;;12.50;99.90;;;;;;5052338;28;20091;-79
2022/10/29 05:00:51;;;;;;;68.22;8.55;;;12.50;99.90;;;;;;5052052;28;20041;-78
2022/10/29 05:03:16;;;;;;;53.13;8.27;;;12.50;99.90;;;;;;5053163;28;20410;-79
2022/10/29 05:05:42;;;;;;;84.43;9.68;;;12.50;99.90;;;;;;5051638;28;20123;-80
2022/10/29 05:08:10;;;;;;;57.00;8.95;;;12.50;99.90;;;;;;5051253;28;20047;-79
2022/10/29 05:10:37;;;;;;;80.28;9.00;;;12.50;99.90;;;;;;5051717;28;20033;-80
2022/10/29 05:13:06;;;;;;;49.55;8.48;;;12.50;99.90;;;;;;5051312;28;20059;-80
2022/10/29 05:15:32;;;;;;;57.90;9.55;;;12.50;99.90;;;;;;5051821;28;20037;-79
2022/10/29 05:17:58;;;;;;;41.72;7.88;;;12.50;99.90;;;;;;5052051;28;20361;-80
2022/10/29 05:20:24;;;;;;;48.08;7.88;;;12.50;99.90;;;;;;5052154;28;20107;-80
2022/10/29 05:22:56;;;;;;;38.95;8.15;;;12.50;99.90;;;;;;5035263;28;20037;-80
2022/10/29 05:25:22;;;;;;;28.90;7.13;;;12.50;99.90;;;;;;5051784;28;20352;-80
2022/10/29 05:27:47;;;;;;;84.38;10.95;;;12.50;99.90;;;;;;5052055;28;20041;-80
2022/10/29 05:30:13;;;;;;;35.42;7.75;;;12.50;99.90;;;;;;5051773;28;20095;-79
2022/10/29 05:32:38;;;;;;;20.10;7.30;;;12.50;99.90;;;;;;5051076;28;20039;-79
2022/10/29 05:35:04;;;;;;;29.67;7.28;;;12.50;99.90;;;;;;5034588;28;20136;-80
2022/10/29 05:37:30;;;;;;;18.23;6.68;;;12.50;99.90;;;;;;5051840;28;20047;-79
2022/10/29 05:39:55;;;;;;;24.38;6.78;;;12.50;99.90;;;;;;5054374;28;20041;-80
2022/10/29 05:42:21;;;;;;;54.90;8.55;;;12.50;99.90;;;;;;5038564;28;20044;-79
2022/10/29 05:44:46;;;;;;;47.15;7.45;;;12.50;99.90;;;;;;5038132;28;20182;-79
2022/10/29 05:47:12;;;;;;;37.95;8.15;;;12.50;99.90;;;;;;5055293;28;20036;-80
2022/10/29 05:49:37;;;;;;;25.67;6.90;;;12.50;99.90;;;;;;5055217;28;20037;-79
2022/10/29 05:52:03;;;;;;;16.48;6.13;;;12.50;99.90;;;;;;5054978;28;20047;-79
2022/10/29 05:54:28;;;;;;;33.67;7.07;;;12.50;99.90;;;;;;5054314;28;20112;-78
2022/10/29 05:56:57;;;;;;;38.95;6.82;;;12.50;99.90;;;;;;5054835;28;20049;-79
2022/10/29 05:59:23;;;;;;;47.78;6.53;;;12.50;99.90;;;;;;5054279;28;20048;-79
2022/10/29 06:01:48;;;;;;;36.25;7.18;;;12.50;99.90;;;;;;5054400;28;20044;-79
2022/10/29 06:04:14;;;;;;;36.05;7.10;;;12.50;99.90;;;;;;5054324;28;20051;-79
2022/10/29 06:06:39;;;;;;;48.85;7.68;;;12.50;99.90;;;;;;5054877;28;20037;-79
2022/10/29 06:09:05;;;;;;;46.25;7.78;;;12.50;99.90;;;;;;5053915;28;20037;-79
2022/10/29 06:11:30;;;;;;;75.38;7.78;;;12.50;99.90;;;;;;5052968;28;20037;-79
2022/10/29 06:13:56;;;;;;;66.82;7.85;;;12.50;99.90;;;;;;5054028;28;20083;-79
2022/10/29 06:16:22;;;;;;;31.35;6.53;;;12.50;99.90;;;;;;5054122;28;20194;-79
2022/10/29 06:18:48;;;;;;;37.65;7.47;;;12.50;99.90;;;;;;5054032;28;20408;-79
2022/10/29 06:21:13;;;;;;;72.68;8.88;;;12.50;99.90;;;;;;5053945;28;20033;-78
2022/10/29 06:23:39;;;;;;;36.97;7.07;;;12.50;99.90;;;;;;5052455;28;20040;-79
2022/10/29 06:26:04;;;;;;;48.00;7.72;;;12.50;99.90;;;;;;5036794;28;20045;-79
2022/10/29 06:28:30;;;;;;;18.17;5.95;;;12.50;99.90;;;;;;5053983;28;20116;-79
2022/10/29 06:30:56;;;;;;;35.47;6.32;;;12.60;99.90;;;;;;5052897;28;20041;-79
2022/10/29 06:33:21;;;;;;;59.38;6.88;;;12.60;99.90;;;;;;5052464;28;20048;-79
2022/10/29 06:35:47;;;;;;;48.88;7.55;;;12.60;99.90;;;;;;5041556;28;20029;-79
2022/10/29 06:38:13;;;;;;;59.58;6.53;;;12.60;99.90;;;;;;5033232;28;20434;-79
2022/10/29 06:40:40;;;;;;;46.75;6.20;;;12.60;99.90;;;;;;5033536;28;20041;-79
2022/10/29 06:43:08;;;;;;;23.88;5.97;;;12.60;99.90;;;;;;5033620;28;20139;-79
2022/10/29 06:45:34;;;;;;;41.53;6.30;;;12.60;99.90;;;;;;5033073;28;20033;-79
2022/10/29 06:48:00;;;;;;;26.58;5.90;;;12.60;99.90;;;;;;5033671;28;20033;-79
2022/10/29 06:50:25;;;;;;;39.95;6.75;;;12.70;99.90;;;;;;5032298;28;20128;-79
2022/10/29 06:52:59;;;;;;;29.13;6.60;;;12.70;99.90;;;;;;5033211;28;20503;-79
2022/10/29 06:55:25;;;;;;;10.32;5.20;;;12.70;99.90;;;;;;5034538;28;20050;-79
2022/10/29 06:58:05;;;;;;;30.55;7.43;;;12.70;99.90;;;;;;5037704;28;20047;-79
2022/10/29 07:00:33;;;;;;;31.70;6.93;;;12.80;99.90;;;;;;5049173;28;20040;-79
2022/10/29 07:02:59;;;;;;;32.05;7.93;;;12.80;99.90;;;;;;5054604;28;20102;-79
2022/10/29 07:05:25;;;;;;;46.58;7.75;;;12.90;99.90;;;;;;5054041;28;20059;-80
2022/10/29 07:08:09;;;;;;;28.05;6.90;;;12.90;99.90;;;;;;5053973;28;20538;-80
2022/10/29 07:10:35;;;;;;;40.10;8.52;;;12.90;99.90;;;;;;5053942;28;20045;-80
2022/10/29 07:13:01;;;;;;;24.63;7.05;;;13.00;99.90;;;;;;5053602;28;20029;-79
2022/10/29 07:15:27;;;;;;;33.65;7.25;;;13.00;99.90;;;;;;5037353;28;20041;-79
2022/10/29 07:18:14;;;;;;;19.48;6.72;;;13.00;99.90;;;;;;5053474;28;20506;-79
2022/10/29 07:20:43;;;;;;;18.98;7.22;;;13.10;99.90;;;;;;5053754;28;20076;-78
2022/10/29 07:23:10;;;;;;;34.95;7.97;;;13.10;99.90;;;;;;5053241;28;20040;-80
2022/10/29 07:25:37;;;;;;;31.00;8.10;;;13.10;99.90;;;;;;5053607;28;20052;-79
2022/10/29 07:28:24;;;;;;;29.73;7.40;;;13.10;99.90;;;;;;5052821;28;20044;-79
2022/10/29 07:30:51;;;;;;;58.78;8.95;;;13.10;99.90;;;;;;5053877;28;20041;-80
2022/10/29 07:33:17;;;;;;;31.92;8.57;;;13.20;99.90;;;;;;5054052;28;20041;-79
2022/10/29 07:35:43;;;;;;;31.58;7.75;;;13.20;99.90;;;;;;5052615;28;20489;-79
2022/10/29 07:38:11;;;;;;;19.27;7.40;;;13.20;99.90;;;;;;5052932;28;20545;-80
2022/10/29 07:40:46;;;;;;;45.08;8.15;;;13.20;99.90;;;;;;5053091;28;20067;-80
2022/10/29 07:43:12;;;;;;;31.63;8.55;;;13.30;99.90;;;;;;5036439;28;20163;-79
2022/10/29 07:45:37;;;;;;;34.67;8.95;;;13.30;99.90;;;;;;5035878;28;20124;-79
2022/10/29 07:48:08;;;;;;;48.17;9.40;;;13.30;99.90;;;;;;5052541;28;20040;-79
2022/10/29 07:50:34;;;;;;;45.35;10.73;;;13.40;99.90;;;;;;5035994;28;20376;-79
2022/10/29 07:53:01;;;;;;;51.30;11.27;;;13.40;99.90;;;;;;5052449;28;20033;-79
2022/10/29 07:55:27;;;;;;;55.47;11.73;;;13.40;99.90;;;;;;5051675;28;20056;-79
2022/10/29 07:58:01;;;;;;;69.15;12.88;;;13.50;99.90;;;;;;5052143;28;20422;-79
2022/10/29 08:00:31;;;;;;;39.35;12.15;;;13.40;99.90;;;;;;5052165;28;20049;-79
2022/10/29 08:02:57;;;;;;;47.55;13.45;;;13.50;99.90;;;;;;5052296;28;20075;-79
2022/10/29 08:05:24;;;;;;;62.22;14.07;;;13.50;99.90;;;;;;5052889;28;20041;-79
2022/10/29 08:07:51;;;;;;;34.63;13.18;;;13.50;99.90;;;;;;5052840;28;20045;-79
2022/10/29 08:10:17;;;;;;;40.70;13.98;;;13.50;99.90;;;;;;5052991;28;20048;-79
2022/10/29 08:12:53;;;;;;;45.08;15.02;;;13.60;99.90;;;;;;5051502;28;20067;-79
2022/10/29 08:15:19;;;;;;;45.95;14.93;;;13.60;99.90;;;;;;5052026;28;20057;-79
2022/10/29 08:17:45;;;;;;;47.97;15.18;;;13.60;99.90;;;;;;5052743;28;20052;-80
2022/10/29 08:20:11;;;;;;;36.28;16.02;;;13.60;99.90;;;;;;5052578;28;20376;-79
2022/10/29 08:22:37;;;;;;;43.72;17.33;;;13.60;99.90;;;;;;5051975;28;20045;-79
2022/10/29 08:25:03;;;;;;;42.30;17.75;;;13.60;99.90;;;;;;5051819;28;20041;-79
2022/10/29 08:27:28;;;;;;;49.45;18.02;;;13.70;99.90;;;;;;5053178;28;20048;-80
2022/10/29 08:29:54;;;;;;;50.72;18.45;;;13.70;99.90;;;;;;5054856;28;20037;-79
2022/10/29 08:32:19;;;;;;;52.10;19.30;;;13.70;99.90;;;;;;5052232;28;20048;-79
2022/10/29 08:34:45;;;;;;;59.63;20.05;;;13.70;99.90;;;;;;5052657;28;20529;-80
2022/10/29 08:37:10;;;;;;;52.05;19.40;;;13.80;99.90;;;;;;5052623;28;20144;-79
2022/10/29 08:39:36;;;;;;;55.05;19.40;;;13.80;99.90;;;;;;5036100;28;20525;-79
2022/10/29 08:42:18;;;;;;;48.22;20.50;;;13.80;99.90;;;;;;5052066;28;20087;-79
2022/10/29 08:45:03;;;;;;;50.60;19.98;;;13.90;99.90;;;;;;5052507;28;20045;-79
2022/10/29 08:47:40;;;;;;;48.60;19.80;;;13.90;99.90;;;;;;5052832;28;20514;-79
2022/10/29 08:50:19;;;;;;;49.08;19.40;;;14.00;99.90;;;;;;5052863;28;20052;-79
2022/10/29 08:52:45;;;;;;;53.67;21.15;;;14.00;99.90;;;;;;5051769;28;20037;-79
2022/10/29 08:55:32;;;;;;;48.53;20.65;;;14.00;99.90;;;;;;5052008;28;20056;-79
2022/10/29 08:58:03;;;;;;;54.58;22.15;;;14.10;99.90;;;;;;5033626;28;21994;-80
2022/10/29 09:00:36;;;;;;;54.10;21.58;;;14.10;99.90;;;;;;5052483;28;20095;-80
2022/10/29 09:03:01;;;;;;;50.97;21.83;;;14.10;99.90;;;;;;5052548;28;20494;-79
2022/10/29 09:05:34;;;;;;;54.25;21.85;;;14.10;99.90;;;;;;5052214;28;20056;-79
2022/10/29 09:08:38;;;;;;;56.15;22.58;;;14.10;99.90;;;;;;5035541;28;20045;-79
2022/10/29 09:11:20;;;;;;;57.17;22.67;;;14.10;99.90;;;;;;5052656;28;20036;-78
2022/10/29 09:14:24;;;;;;;49.45;22.77;;;14.10;99.90;;;;;;5053495;28;20040;-78
2022/10/29 09:17:02;;;;;;;51.25;22.52;;;14.20;99.90;;;;;;5056419;28;20052;-79
2022/10/29 09:19:28;;;;;;;54.47;23.60;;;14.20;99.90;;;;;;5058842;28;20041;-79
2022/10/29 09:22:26;;;;;;;46.88;22.88;;;14.20;99.90;;;;;;5056938;28;20049;-79
2022/10/29 09:25:15;;;;;;;50.55;22.30;;;14.30;99.90;;;;;;5039310;28;20048;-79
2022/10/29 09:28:12;;;;;;;45.22;20.98;;;14.40;99.90;;;;;;5057057;28;20076;-80
2022/10/29 09:30:50;;;;;;;51.90;22.60;;;14.40;99.90;;;;;;5031809;28;20049;-79
2022/10/29 09:33:19;;;;;;;48.35;22.92;;;14.50;99.90;;;;;;5056856;28;20043;-79
2022/10/29 09:35:52;;;;;;;49.40;22.63;;;14.60;99.90;;;;;;5057331;28;20044;-79
2022/10/29 09:38:22;;;;;;;53.58;23.38;;;14.60;99.90;;;;;;5040588;28;20051;-79
2022/10/29 09:40:48;;;;;;;44.63;22.30;;;14.60;99.90;;;;;;5056822;28;20387;-79
2022/10/29 09:43:36;;;;;;;50.55;22.83;;;14.70;99.90;;;;;;5056325;28;20033;-79
2022/10/29 09:46:16;;;;;;;48.35;22.10;;;14.60;99.90;;;;;;5055574;28;20041;-79
2022/10/29 09:49:00;;;;;;;45.03;22.48;;;14.70;99.90;;;;;;5056105;28;20043;-79
2022/10/29 09:51:49;;;;;;;;;;;14.70;99.90;;;;;;5055659;28;20041;-79
2022/10/29 09:54:15;;;;;;;42.30;18.65;;;14.70;99.90;;;;;;5052146;28;19916;-79
2022/10/29 09:56:43;;;;;;;44.15;20.08;;;14.70;99.90;;;;;;5055852;28;20040;-79
2022/10/29 09:59:35;;;;;;;35.97;19.05;;;14.70;99.90;;;;;;5054895;28;20060;-78
2022/10/29 10:02:00;;;;;;;37.10;17.88;;;14.80;99.90;;;;;;5055419;28;20060;-79
2022/10/29 10:04:29;;;;;;;36.72;18.90;;;14.80;99.90;;;;;;5054728;28;20045;-79
2022/10/29 10:07:06;;;;;;;37.53;17.98;;;14.80;99.90;;;;;;5054311;28;20131;-78
2022/10/29 10:10:14;;;;;;;36.08;18.17;;;14.90;99.90;;;;;;5054846;28;20079;-80
2022/10/29 10:12:45;;;;;;;38.25;18.88;;;15.00;99.90;;;;;;5046010;28;20045;-78
2022/10/29 10:15:31;;;;;;;39.33;18.35;;;15.10;99.90;;;;;;5053779;28;20037;-78
2022/10/29 10:18:24;;;;;;;29.30;16.63;;;15.20;99.90;;;;;;5054031;28;20045;-79
2022/10/29 10:21:13;;;;;;;32.13;17.05;;;15.30;99.90;;;;;;5053110;28;20080;-79
2022/10/29 10:23:45;;;;;;;33.28;16.00;;;15.40;99.90;;;;;;5053982;28;20554;-79
2022/10/29 10:26:33;;;;;;;35.92;16.77;;;15.50;99.90;;;;;;5053768;28;20067;-78
2022/10/29 10:29:20;;;;;;;33.92;15.43;;;15.60;99.90;;;;;;5053858;28;20064;-78
2022/10/29 10:32:08;;;;;;;32.30;15.68;;;15.70;99.90;;;;;;5053678;28;20037;-79
2022/10/29 10:34:33;;;;;;;34.88;15.75;;;15.70;99.90;;;;;;5054373;28;20414;-79
2022/10/29 10:37:08;;;;;;;30.75;15.63;;;15.70;99.90;;;;;;5036531;28;20135;-79
2022/10/29 10:39:38;;;;;;;30.55;15.70;;;15.80;99.90;;;;;;5053810;28;20055;-79
2022/10/29 10:42:26;;;;;;;30.98;14.75;;;15.80;99.90;;;;;;5052478;28;20037;-81
2022/10/29 10:44:58;;;;;;;28.95;15.18;;;15.90;99.90;;;;;;5043681;28;20490;-79
2022/10/29 10:47:28;;;;;;;26.88;13.93;;;16.00;99.90;;;;;;5053089;28;20072;-79
2022/10/29 10:50:08;;;;;;;29.00;13.82;;;16.10;99.90;;;;;;5053875;28;20159;-78
2022/10/29 10:52:34;;;;;;;26.30;13.80;;;16.20;99.90;;;;;;5039409;28;20112;-79
2022/10/29 10:55:06;;;;;;;26.83;14.93;;;16.20;99.90;;;;;;5040038;28;20041;-79
2022/10/29 10:57:39;;;;;;;31.90;14.15;;;16.30;99.90;;;;;;5052617;28;20115;-80
2022/10/29 11:00:21;;;;;;;25.20;13.30;;;16.30;99.90;;;;;;5047706;28;20040;-80
2022/10/29 11:03:10;;;;;;;23.52;13.30;;;16.30;99.90;;;;;;5030682;28;20529;-80
2022/10/29 11:06:19;;;;;;;24.48;12.68;;;16.40;99.90;;;;;;5050873;28;20045;-80
2022/10/29 11:09:21;;;;;;;27.27;13.25;;;16.50;99.90;;;;;;4993745;28;20080;-79
2022/10/29 11:12:22;;;;;;;24.33;12.32;;;16.60;99.90;;;;;;5048363;28;20568;-79
2022/10/29 11:14:52;;;;;;;23.90;12.00;;;16.70;99.90;;;;;;5052642;28;20130;-79
2022/10/29 11:17:31;;;;;;;19.85;11.68;;;16.80;99.90;;;;;;5052266;28;20465;-79
2022/10/29 11:20:02;;;;;;;22.25;11.13;;;16.90;99.90;;;;;;5052261;28;20041;-80
2022/10/29 11:22:51;;;;;;;24.23;12.50;;;17.00;99.90;;;;;;5052989;28;20049;-79
2022/10/29 11:25:38;;;;;;;23.35;12.00;;;17.10;99.90;;;;;;5052325;28;20057;-79
2022/10/29 11:28:19;;;;;;;20.55;10.75;;;17.20;99.90;;;;;;5052745;28;20047;-79
2022/10/29 11:30:55;;;;;;;23.77;10.75;;;17.30;99.90;;;;;;5052707;28;20078;-79
2022/10/29 11:33:34;;;;;;;17.15;10.82;;;17.30;99.90;;;;;;5036414;28;20112;-78
2022/10/29 11:36:11;;;;;;;23.27;11.10;;;17.40;99.90;;;;;;5052673;28;20037;-80
2022/10/29 11:38:47;;;;;;;19.30;10.50;;;17.60;99.90;;;;;;5052436;28;20067;-78
2022/10/29 11:41:36;;;;;;;24.13;11.05;;;17.80;99.90;;;;;;5052563;28;20157;-79
2022/10/29 11:44:03;;;;;;;21.50;11.40;;;17.80;99.90;;;;;;5052651;28;20131;-80
2022/10/29 11:46:52;;;;;;;18.55;10.85;;;17.90;99.90;;;;;;5052856;28;20107;-80
2022/10/29 11:49:44;;;;;;;21.17;10.95;;;17.90;99.90;;;;;;5052871;28;20060;-79
2022/10/29 11:52:30;;;;;;;21.02;10.52;;;17.90;99.90;;;;;;5035491;28;20037;-79
2022/10/29 11:55:07;;;;;;;20.23;10.32;;;18.00;99.90;;;;;;5052149;28;20511;-79
2022/10/29 11:57:59;;;;;;;18.20;10.65;;;18.00;99.90;;;;;;5052846;28;20500;-78
2022/10/29 12:00:26;;;;;;;22.38;10.82;;;18.00;99.90;;;;;;5051854;28;20037;-79
2022/10/29 12:02:57;;;;;;;21.40;10.90;;;18.00;99.90;;;;;;5051935;28;20128;-79
2022/10/29 12:05:50;;;;;;;19.73;10.77;;;18.00;99.90;;;;;;5051843;28;20036;-79
2022/10/29 12:08:58;;;;;;;20.02;10.68;;;17.90;99.90;;;;;;5052422;28;20116;-79
2022/10/29 12:11:53;;;;;;;20.20;10.27;;;17.80;99.90;;;;;;5051619;28;20406;-78
2022/10/29 12:14:21;;;;;;;19.60;10.45;;;17.80;99.90;;;;;;5049562;28;20033;-78
2022/10/29 12:17:01;;;;;;;19.20;10.70;;;17.70;99.90;;;;;;5051103;28;20029;-78
2022/10/29 12:19:43;;;;;;;21.73;10.68;;;17.70;99.90;;;;;;5051536;28;20041;-79
2022/10/29 12:22:27;;;;;;;20.85;10.10;;;17.70;99.90;;;;;;5051156;28;20036;-79
2022/10/29 12:25:18;;;;;;;;;;;17.80;99.90;;;;;;5051389;28;20497;-79
2022/10/29 12:27:52;;;;;;;22.75;10.63;;;17.90;99.90;;;;;;5051195;28;19917;-79
2022/10/29 12:30:20;;;;;;;23.85;10.95;;;17.90;99.90;;;;;;5049229;28;20498;-79
2022/10/29 12:32:52;;;;;;;20.05;10.85;;;18.00;99.90;;;;;;5061773;28;20048;-79
2022/10/29 12:35:27;;;;;;;19.30;9.63;;;18.10;99.90;;;;;;5060277;28;20052;-79
2022/10/29 12:38:30;;;;;;;19.15;10.00;;;18.10;99.90;;;;;;5051041;28;20041;-79
2022/10/29 12:41:22;;;;;;;22.98;9.45;;;18.20;99.90;;;;;;5047768;28;20097;-79
2022/10/29 12:43:50;;;;;;;20.30;9.32;;;18.30;99.90;;;;;;5059553;28;20468;-78
2022/10/29 12:46:34;;;;;;;19.35;8.77;;;18.40;99.90;;;;;;5052850;28;20034;-78
2022/10/29 12:49:00;;;;;;;20.13;9.05;;;18.60;99.90;;;;;;5033750;28;20048;-79
2022/10/29 12:51:39;;;;;;;16.55;8.77;;;18.80;99.90;;;;;;5041154;28;20033;-79
2022/10/29 12:54:43;;;;;;;18.80;8.68;;;18.90;99.90;;;;;;5055944;28;20037;-79
2022/10/29 12:57:12;;;;;;;21.92;9.38;;;18.80;99.90;;;;;;5054861;28;20041;-78
2022/10/29 12:59:39;;;;;;;18.27;9.05;;;18.80;99.90;;;;;;5043640;28;20159;-79